createdAt,value
2023-05-06T00:01:34.420Z,101576.03
2023-05-06T00:04:00.983Z,101578.53
2023-05-06T00:06:28.744Z,101579.84
2023-05-06T00:08:55.267Z,101583.22
2023-05-06T00:11:21.733Z,101576.34
2023-05-06T00:13:48.210Z,101572.88
2023-05-06T00:16:15.061Z,101580.38
2023-05-06T00:18:42.099Z,101582.44
2023-05-06T00:21:08.597Z,101572.25
2023-05-06T00:23:35.076Z,101576.28
2023-05-06T00:26:01.568Z,101575.34
2023-05-06T00:28:28.073Z,101576.59
2023-05-06T00:30:54.524Z,101567.56
2023-05-06T00:33:21.143Z,101576.78
2023-05-06T00:35:48.250Z,101577.22
2023-05-06T00:38:17.645Z,101580.09
2023-05-06T00:40:44.178Z,101579.56
2023-05-06T00:43:10.674Z,101569.69
2023-05-06T00:45:37.541Z,101582.41
2023-05-06T00:48:05.335Z,101576.16
2023-05-06T00:50:33.317Z,101572.09
2023-05-06T00:53:00.674Z,101562.31
2023-05-06T00:55:27.436Z,101572.09
2023-05-06T00:57:54.547Z,101568.47
2023-05-06T01:00:21.547Z,101574.69
2023-05-06T01:02:48.889Z,101567.88
2023-05-06T01:05:19.373Z,101557.13
2023-05-06T01:07:48.904Z,101572.47
2023-05-06T01:10:27.463Z,101566.19
2023-05-06T01:13:19.684Z,101566.41
2023-05-06T01:15:47.981Z,101561.25
2023-05-06T01:18:18.126Z,101564.28
2023-05-06T01:20:49.854Z,101560.19
2023-05-06T01:23:17.293Z,101554.56
2023-05-06T01:25:44.116Z,101561.28
2023-05-06T01:28:12.062Z,101556.41
2023-05-06T01:31:05.778Z,101550.22
2023-05-06T01:33:37.368Z,101550.19
2023-05-06T01:36:13.921Z,101563.91
2023-05-06T01:38:54.465Z,101551.31
2023-05-06T01:41:21.346Z,101563.75
2023-05-06T01:43:48.329Z,101565.31
2023-05-06T01:46:22.646Z,101559.69
2023-05-06T01:48:55.459Z,101563.38
2023-05-06T01:51:23.559Z,101562.09
2023-05-06T01:53:51.001Z,101553.41
2023-05-06T01:56:17.529Z,101558.53
2023-05-06T01:58:44.028Z,101552.56
2023-05-06T02:01:10.543Z,101554.81
2023-05-06T02:03:37.591Z,101559.97
2023-05-06T02:06:04.861Z,101567.22
2023-05-06T02:08:31.439Z,101561.47
2023-05-06T02:10:57.890Z,101565.50
2023-05-06T02:13:24.418Z,101563.59
2023-05-06T02:15:54.755Z,101564.88
2023-05-06T02:18:21.660Z,101558.75
2023-05-06T02:20:48.128Z,101570.50
2023-05-06T02:23:14.658Z,101566.84
2023-05-06T02:25:41.139Z,101561.28
2023-05-06T02:28:07.631Z,101555.25
2023-05-06T02:30:34.658Z,101558.13
2023-05-06T02:33:01.250Z,101558.97
2023-05-06T02:35:27.818Z,101562.53
2023-05-06T02:37:54.310Z,101563.06
2023-05-06T02:40:20.805Z,101558.19
2023-05-06T02:42:47.382Z,101563.41
2023-05-06T02:45:13.942Z,101556.91
2023-05-06T02:47:40.665Z,101559.44
2023-05-06T02:50:07.570Z,101558.41
2023-05-06T02:52:34.988Z,101557.78
2023-05-06T02:55:01.939Z,101551.25
2023-05-06T02:57:28.648Z,101554.94
2023-05-06T02:59:55.213Z,101555.13
2023-05-06T03:02:21.803Z,101549.88
2023-05-06T03:04:48.342Z,101542.81
2023-05-06T03:07:14.779Z,101549.88
2023-05-06T03:09:41.303Z,101536.28
2023-05-06T03:12:07.734Z,101544.22
2023-05-06T03:14:34.209Z,101553.47
2023-05-06T03:17:00.720Z,101549.06
2023-05-06T03:19:27.232Z,101547.75
2023-05-06T03:21:53.760Z,101542.31
2023-05-06T03:24:20.339Z,101553.19
2023-05-06T03:26:46.767Z,101551.28
2023-05-06T03:29:13.230Z,101556.72
2023-05-06T03:31:39.811Z,101555.22
2023-05-06T03:34:06.335Z,101548.56
2023-05-06T03:36:33.112Z,101548.91
2023-05-06T03:38:59.617Z,101553.91
2023-05-06T03:41:26.138Z,101558.78
2023-05-06T03:43:54.143Z,101550.88
2023-05-06T03:46:20.623Z,101557.03
2023-05-06T03:48:47.152Z,101552.25
2023-05-06T03:51:13.770Z,101557.25
2023-05-06T03:53:40.294Z,101554.44
2023-05-06T03:56:07.177Z,101549.69
2023-05-06T03:58:33.656Z,101546.88
2023-05-06T04:01:01.060Z,101549.34
2023-05-06T04:03:27.807Z,101543.97
2023-05-06T04:05:54.357Z,101547.06
2023-05-06T04:08:20.914Z,101550.59
2023-05-06T04:10:47.610Z,101545.06
2023-05-06T04:13:14.178Z,101550.09
2023-05-06T04:15:41.535Z,101555.28
2023-05-06T04:18:08.332Z,101551.59
2023-05-06T04:20:34.983Z,101556.44
2023-05-06T04:23:01.867Z,101551.59
2023-05-06T04:25:28.801Z,101554.22
2023-05-06T04:27:55.270Z,101555.38
2023-05-06T04:30:22.563Z,101556.78
2023-05-06T04:32:49.113Z,101570.63
2023-05-06T04:35:16.316Z,101561.72
2023-05-06T04:37:43.525Z,101562.81
2023-05-06T04:40:12.234Z,101571.44
2023-05-06T04:42:38.892Z,101574.81
2023-05-06T04:45:05.795Z,101568.81
2023-05-06T04:47:32.432Z,101573.09
2023-05-06T04:49:58.988Z,101575.88
2023-05-06T04:52:26.209Z,101584.59
2023-05-06T04:54:52.680Z,101582.75
2023-05-06T04:57:19.111Z,101585.13
2023-05-06T04:59:46.353Z,101582.47
2023-05-06T05:02:12.974Z,101584.66
2023-05-06T05:04:39.525Z,101595.53
2023-05-06T05:07:07.405Z,101593.47
2023-05-06T05:09:35.027Z,101599.78
2023-05-06T05:12:02.604Z,101597.25
2023-05-06T05:14:29.072Z,101600.28
2023-05-06T05:16:55.834Z,101603.66
2023-05-06T05:19:22.374Z,101605.84
2023-05-06T05:21:49.262Z,101604.19
2023-05-06T05:24:16.043Z,101605.97
2023-05-06T05:26:42.502Z,101605.22
2023-05-06T05:29:08.981Z,101611.25
2023-05-06T05:31:35.481Z,101614.41
2023-05-06T05:34:02.009Z,101612.00
2023-05-06T05:36:28.524Z,101608.50
2023-05-06T05:38:54.998Z,101610.84
2023-05-06T05:41:21.668Z,101607.34
2023-05-06T05:43:48.181Z,101617.03
2023-05-06T05:46:14.703Z,101614.66
2023-05-06T05:48:41.334Z,101621.66
2023-05-06T05:51:07.800Z,101616.69
2023-05-06T05:53:34.261Z,101611.22
2023-05-06T05:56:00.742Z,101613.16
2023-05-06T05:58:27.242Z,101620.31
2023-05-06T06:00:53.907Z,101624.25
2023-05-06T06:03:20.475Z,101629.16
2023-05-06T06:05:49.304Z,101628.69
2023-05-06T06:08:17.417Z,101629.75
2023-05-06T06:10:43.872Z,101632.03
2023-05-06T06:13:10.385Z,101640.19
2023-05-06T06:15:36.927Z,101632.69
2023-05-06T06:18:03.523Z,101638.34
2023-05-06T06:20:30.058Z,101634.69
2023-05-06T06:22:56.514Z,101641.94
2023-05-06T06:25:22.978Z,101634.75
2023-05-06T06:27:49.425Z,101636.00
2023-05-06T06:30:16.038Z,101629.63
2023-05-06T06:32:50.098Z,101649.44
2023-05-06T06:35:17.114Z,101638.94
2023-05-06T06:37:43.615Z,101652.94
2023-05-06T06:40:11.290Z,101645.28
2023-05-06T06:42:38.024Z,101657.91
2023-05-06T06:45:05.293Z,101647.97
2023-05-06T06:47:31.735Z,101660.59
2023-05-06T06:49:58.223Z,101655.00
2023-05-06T06:52:24.775Z,101655.25
2023-05-06T06:54:51.261Z,101657.94
2023-05-06T06:57:17.842Z,101656.31
2023-05-06T06:59:44.702Z,101652.66
2023-05-06T07:02:11.138Z,101657.59
2023-05-06T07:04:37.702Z,101648.81
2023-05-06T07:07:04.187Z,101650.06
2023-05-06T07:09:30.626Z,101651.69
2023-05-06T07:11:58.585Z,101661.47
2023-05-06T07:14:25.882Z,101664.31
2023-05-06T07:16:52.355Z,101662.72
2023-05-06T07:19:18.952Z,101662.44
2023-05-06T07:21:45.422Z,101659.84
2023-05-06T07:24:11.908Z,101665.28
2023-05-06T07:26:38.480Z,101661.38
2023-05-06T07:29:04.943Z,101666.78
2023-05-06T07:31:34.624Z,101676.47
2023-05-06T07:34:01.226Z,101669.53
2023-05-06T07:36:28.732Z,101674.25
2023-05-06T07:38:55.290Z,101684.03
2023-05-06T07:41:21.735Z,101687.91
2023-05-06T07:43:48.173Z,101689.97
2023-05-06T07:46:14.658Z,101688.75
2023-05-06T07:48:41.190Z,101689.06
2023-05-06T07:51:07.677Z,101699.38
2023-05-06T07:53:34.161Z,101693.81
2023-05-06T07:56:02.561Z,101691.09
2023-05-06T07:58:30.225Z,101697.91
2023-05-06T08:00:56.737Z,101705.59
2023-05-06T08:03:23.604Z,101697.88
2023-05-06T08:05:53.581Z,101703.59
2023-05-06T08:08:20.109Z,101702.56
2023-05-06T08:10:46.754Z,101705.16
2023-05-06T08:13:13.306Z,101712.38
2023-05-06T08:15:39.946Z,101706.56
2023-05-06T08:18:21.103Z,101715.38
2023-05-06T08:20:48.573Z,101727.91
2023-05-06T08:23:15.129Z,101720.72
2023-05-06T08:25:41.640Z,101727.09
2023-05-06T08:28:08.099Z,101719.66
2023-05-06T08:30:34.584Z,101728.69
2023-05-06T08:33:01.921Z,101725.06
2023-05-06T08:35:28.403Z,101726.66
2023-05-06T08:37:54.848Z,101724.59
2023-05-06T08:40:22.513Z,101729.00
2023-05-06T08:42:49.940Z,101734.81
2023-05-06T08:45:19.802Z,101728.81
2023-05-06T08:47:47.435Z,101734.09
2023-05-06T08:50:14.115Z,101729.84
2023-05-06T08:52:40.637Z,101741.59
2023-05-06T08:55:08.100Z,101755.88
2023-05-06T08:57:35.123Z,101750.34
2023-05-06T09:00:01.944Z,101753.94
2023-05-06T09:02:28.618Z,101747.09
2023-05-06T09:04:56.556Z,101752.97
2023-05-06T09:07:23.988Z,101752.13
2023-05-06T09:09:51.637Z,101760.66
2023-05-06T09:12:18.568Z,101752.78
2023-05-06T09:14:46.701Z,101751.41
2023-05-06T09:17:27.890Z,101746.84
2023-05-06T09:19:56.966Z,101754.25
2023-05-06T09:22:24.710Z,101763.13
2023-05-06T09:24:57.655Z,101749.84
2023-05-06T09:27:28.415Z,101758.06
2023-05-06T09:30:08.782Z,101758.00
2023-05-06T09:32:38.359Z,101763.94
2023-05-06T09:35:07.323Z,101761.53
2023-05-06T09:37:33.938Z,101760.69
2023-05-06T09:40:01.133Z,101770.81
2023-05-06T09:42:29.636Z,101768.97
2023-05-06T09:45:00.548Z,101770.63
2023-05-06T09:47:29.957Z,101772.38
2023-05-06T09:49:58.393Z,101775.22
2023-05-06T09:52:27.314Z,101771.69
2023-05-06T09:54:54.828Z,101786.38
2023-05-06T09:57:22.350Z,101779.53
2023-05-06T09:59:49.186Z,101777.00
2023-05-06T10:02:16.403Z,101767.94
2023-05-06T10:04:43.603Z,101765.00
2023-05-06T10:07:13.754Z,101773.09
2023-05-06T10:09:41.146Z,101775.16
2023-05-06T10:12:08.862Z,101767.59
2023-05-06T10:14:36.789Z,101773.84
2023-05-06T10:17:08.553Z,101772.22
2023-05-06T10:19:35.616Z,101766.44
2023-05-06T10:22:34.990Z,101784.25
2023-05-06T10:25:13.084Z,101773.13
2023-05-06T10:27:43.475Z,101770.72
2023-05-06T10:30:11.379Z,101771.94
2023-05-06T10:32:43.095Z,101778.94
2023-05-06T10:35:16.630Z,101776.28
2023-05-06T10:37:43.760Z,101780.81
2023-05-06T10:40:11.419Z,101780.31
2023-05-06T10:42:37.880Z,101768.28
2023-05-06T10:45:05.936Z,101763.59
2023-05-06T10:47:57.699Z,101773.38
2023-05-06T10:50:25.440Z,101776.97
2023-05-06T10:52:56.589Z,101770.06
2023-05-06T10:55:37.737Z,101773.78
2023-05-06T10:58:12.162Z,101767.91
2023-05-06T11:00:38.656Z,101764.97
2023-05-06T11:03:07.587Z,101760.84
2023-05-06T11:05:51.882Z,101758.09
2023-05-06T11:08:23.719Z,101748.41
2023-05-06T11:10:50.219Z,101761.06
2023-05-06T11:13:27.666Z,101759.78
2023-05-06T11:15:55.664Z,101766.38
2023-05-06T11:18:25.153Z,101768.03
2023-05-06T11:20:52.510Z,101775.50
2023-05-06T11:23:19.078Z,101773.75
2023-05-06T11:25:47.264Z,101775.09
2023-05-06T11:28:14.726Z,101787.78
2023-05-06T11:30:43.728Z,101782.81
2023-05-06T11:33:19.968Z,101780.53
2023-05-06T11:35:46.466Z,101773.53
2023-05-06T11:38:13.022Z,101781.53
2023-05-06T11:40:41.935Z,101778.28
2023-05-06T11:43:13.076Z,101779.50
2023-05-06T11:45:47.299Z,101787.38
2023-05-06T11:48:18.039Z,101800.06
2023-05-06T11:50:48.671Z,101792.63
2023-05-06T11:53:18.952Z,101797.34
2023-05-06T11:55:46.417Z,101800.34
2023-05-06T11:58:17.007Z,101801.22
2023-05-06T12:01:01.458Z,101803.53
2023-05-06T12:03:30.158Z,101813.38
2023-05-06T12:05:57.161Z,101808.50
2023-05-06T12:08:27.868Z,101813.44
2023-05-06T12:10:57.030Z,101819.44
2023-05-06T12:13:23.672Z,101817.56
2023-05-06T12:15:50.483Z,101818.22
2023-05-06T12:18:17.112Z,101815.56
2023-05-06T12:20:44.373Z,101820.31
2023-05-06T12:23:15.395Z,101825.03
2023-05-06T12:25:43.130Z,101824.88
2023-05-06T12:28:20.859Z,101827.59
2023-05-06T12:30:47.433Z,101826.53
2023-05-06T12:33:13.929Z,101829.81
2023-05-06T12:35:41.101Z,101839.38
2023-05-06T12:38:25.993Z,101845.22
2023-05-06T12:40:54.550Z,101848.00
2023-05-06T12:43:29.391Z,101851.59
2023-05-06T12:46:06.745Z,101846.56
2023-05-06T12:48:33.515Z,101845.22
2023-05-06T12:51:00.057Z,101842.50
2023-05-06T12:53:34.686Z,101849.47
2023-05-06T12:56:01.168Z,101837.53
2023-05-06T12:58:37.654Z,101838.03
2023-05-06T13:01:04.586Z,101841.84
2023-05-06T13:03:31.156Z,101838.41
2023-05-06T13:05:57.756Z,101840.44
2023-05-06T13:08:24.205Z,101850.91
2023-05-06T13:10:50.995Z,101842.19
2023-05-06T13:13:17.463Z,101848.06
2023-05-06T13:15:43.947Z,101851.97
2023-05-06T13:18:10.449Z,101852.91
2023-05-06T13:20:36.945Z,101852.63
2023-05-06T13:23:03.884Z,101854.91
2023-05-06T13:25:30.358Z,101850.28
2023-05-06T13:27:56.801Z,101850.22
2023-05-06T13:30:23.299Z,101847.00
2023-05-06T13:32:49.803Z,101843.94
2023-05-06T13:35:16.339Z,101845.94
2023-05-06T13:37:42.882Z,101846.81
2023-05-06T13:40:10.241Z,101851.00
2023-05-06T13:42:36.829Z,101849.03
2023-05-06T13:45:03.446Z,101843.63
2023-05-06T13:47:29.900Z,101839.69
2023-05-06T13:49:56.364Z,101848.78
2023-05-06T13:52:22.806Z,101842.94
2023-05-06T13:54:49.606Z,101841.34
2023-05-06T13:57:16.045Z,101852.59
2023-05-06T13:59:42.545Z,101845.28
2023-05-06T14:02:09.996Z,101832.31
2023-05-06T14:04:36.728Z,101844.53
2023-05-06T14:07:03.257Z,101842.22
2023-05-06T14:09:29.699Z,101839.56
2023-05-06T14:11:56.138Z,101850.25
2023-05-06T14:14:22.599Z,101835.25
2023-05-06T14:16:49.088Z,101833.09
2023-05-06T14:19:15.546Z,101840.03
2023-05-06T14:21:41.988Z,101844.63
2023-05-06T14:24:10.176Z,101831.59
2023-05-06T14:26:36.731Z,101831.22
2023-05-06T14:29:03.831Z,101841.47
2023-05-06T14:31:30.426Z,101832.31
2023-05-06T14:33:57.378Z,101830.72
2023-05-06T14:36:24.924Z,101829.16
2023-05-06T14:38:51.377Z,101831.28
2023-05-06T14:41:17.842Z,101829.75
2023-05-06T14:43:44.297Z,101838.31
2023-05-06T14:46:11.598Z,101823.75
2023-05-06T14:48:38.091Z,101829.38
2023-05-06T14:51:05.046Z,101823.56
2023-05-06T14:53:31.480Z,101829.63
2023-05-06T14:55:57.918Z,101828.72
2023-05-06T14:58:24.486Z,101831.63
2023-05-06T15:00:50.966Z,101829.66
2023-05-06T15:03:17.452Z,101829.59
2023-05-06T15:05:43.947Z,101820.03
2023-05-06T15:08:10.461Z,101827.66
2023-05-06T15:10:37.044Z,101831.66
2023-05-06T15:13:03.743Z,101823.13
2023-05-06T15:15:30.390Z,101835.38
2023-05-06T15:17:56.901Z,101827.25
2023-05-06T15:20:23.471Z,101831.34
2023-05-06T15:22:50.089Z,101841.47
2023-05-06T15:25:30.400Z,101830.84
2023-05-06T15:28:00.404Z,101836.13
2023-05-06T15:30:27.483Z,101835.22
2023-05-06T15:32:54.010Z,101834.66
2023-05-06T15:35:22.324Z,101831.00
2023-05-06T15:37:55.905Z,101840.63
2023-05-06T15:40:27.884Z,101836.44
2023-05-06T15:42:55.650Z,101835.88
2023-05-06T15:45:22.466Z,101837.16
2023-05-06T15:47:49.029Z,101843.19
2023-05-06T15:50:29.002Z,101842.50
2023-05-06T15:52:59.664Z,101851.50
2023-05-06T15:55:26.651Z,101840.63
2023-05-06T15:57:54.600Z,101849.94
2023-05-06T16:00:21.987Z,101851.97
2023-05-06T16:02:48.684Z,101850.34
2023-05-06T16:05:15.786Z,101860.56
2023-05-06T16:07:42.507Z,101866.94
2023-05-06T16:10:09.241Z,101855.25
2023-05-06T16:12:36.411Z,101861.88
2023-05-06T16:15:03.324Z,101868.22
2023-05-06T16:17:30.487Z,101859.72
2023-05-06T16:19:57.300Z,101861.88
2023-05-06T16:22:23.774Z,101861.56
2023-05-06T16:24:50.247Z,101862.59
2023-05-06T16:27:16.723Z,101861.34
2023-05-06T16:29:43.185Z,101858.97
2023-05-06T16:32:09.676Z,101860.31
2023-05-06T16:34:38.881Z,101856.75
2023-05-06T16:37:07.641Z,101861.09
2023-05-06T16:39:34.150Z,101854.47
2023-05-06T16:42:01.168Z,101862.31
2023-05-06T16:44:29.053Z,101861.16
2023-05-06T16:46:56.087Z,101864.59
2023-05-06T16:49:22.678Z,101856.00
2023-05-06T16:51:49.158Z,101853.00
2023-05-06T16:54:15.696Z,101867.00
2023-05-06T16:56:51.539Z,101859.91
2023-05-06T16:59:21.462Z,101860.00
2023-05-06T17:01:48.737Z,101844.31
2023-05-06T17:04:18.745Z,101850.13
2023-05-06T17:06:45.228Z,101850.56
2023-05-06T17:09:12.220Z,101847.22
2023-05-06T17:11:38.704Z,101853.88
2023-05-06T17:14:05.257Z,101852.78
2023-05-06T17:16:31.805Z,101853.28
2023-05-06T17:18:58.358Z,101855.84
2023-05-06T17:21:24.990Z,101844.59
2023-05-06T17:23:54.423Z,101849.94
2023-05-06T17:26:21.447Z,101849.06
2023-05-06T17:28:48.323Z,101852.88
2023-05-06T17:31:15.745Z,101847.91
2023-05-06T17:33:42.267Z,101854.47
2023-05-06T17:36:09.094Z,101850.72
2023-05-06T17:38:35.602Z,101855.47
2023-05-06T17:41:02.146Z,101860.94
2023-05-06T17:43:28.901Z,101858.00
2023-05-06T17:45:55.992Z,101862.56
2023-05-06T17:48:22.723Z,101858.50
2023-05-06T17:50:49.179Z,101856.16
2023-05-06T17:53:15.748Z,101865.19
2023-05-06T17:55:42.200Z,101864.56
2023-05-06T17:58:08.686Z,101865.41
2023-05-06T18:00:37.883Z,101857.00
2023-05-06T18:03:04.591Z,101852.50
2023-05-06T18:05:31.170Z,101864.06
2023-05-06T18:07:58.312Z,101873.06
2023-05-06T18:10:24.779Z,101856.06
2023-05-06T18:12:51.314Z,101858.13
2023-05-06T18:15:17.848Z,101868.47
2023-05-06T18:17:44.352Z,101862.69
2023-05-06T18:20:11.552Z,101858.13
2023-05-06T18:22:39.036Z,101868.34
2023-05-06T18:25:06.630Z,101863.34
2023-05-06T18:27:33.046Z,101869.81
2023-05-06T18:29:59.524Z,101869.59
2023-05-06T18:32:26.203Z,101869.28
2023-05-06T18:34:52.781Z,101874.88
2023-05-06T18:37:19.216Z,101879.19
2023-05-06T18:39:46.034Z,101870.63
2023-05-06T18:42:12.458Z,101882.72
2023-05-06T18:44:38.922Z,101880.41
2023-05-06T18:47:05.692Z,101875.94
2023-05-06T18:49:32.238Z,101884.19
2023-05-06T18:51:58.827Z,101886.25
2023-05-06T18:54:25.333Z,101884.28
2023-05-06T18:56:51.928Z,101879.53
2023-05-06T18:59:21.622Z,101886.09
2023-05-06T19:01:48.125Z,101892.88
2023-05-06T19:04:14.824Z,101894.91
2023-05-06T19:06:41.593Z,101900.81
2023-05-06T19:09:08.275Z,101901.53
2023-05-06T19:11:35.025Z,101898.66
2023-05-06T19:14:03.661Z,101894.88
2023-05-06T19:16:30.323Z,101900.94
2023-05-06T19:18:56.784Z,101900.75
2023-05-06T19:21:23.259Z,101902.63
2023-05-06T19:23:50.127Z,101899.88
2023-05-06T19:26:16.639Z,101901.56
2023-05-06T19:28:43.275Z,101896.41
2023-05-06T19:31:10.778Z,101895.78
2023-05-06T19:33:42.575Z,101903.19
2023-05-06T19:36:09.421Z,101902.91
2023-05-06T19:38:35.972Z,101905.88
2023-05-06T19:41:03.023Z,101908.97
2023-05-06T19:43:31.463Z,101916.50
2023-05-06T19:45:58.010Z,101910.06
2023-05-06T19:48:25.201Z,101909.78
2023-05-06T19:50:54.596Z,101919.22
2023-05-06T19:53:25.746Z,101920.50
2023-05-06T19:55:53.779Z,101921.47
2023-05-06T19:58:20.369Z,101926.16
2023-05-06T20:00:46.870Z,101937.25
2023-05-06T20:03:13.859Z,101921.03
2023-05-06T20:05:41.272Z,101917.56
2023-05-06T20:08:10.983Z,101917.28
2023-05-06T20:10:38.118Z,101924.91
2023-05-06T20:13:05.006Z,101922.25
2023-05-06T20:15:33.798Z,101930.22
2023-05-06T20:18:00.454Z,101925.94
2023-05-06T20:20:34.097Z,101928.84
2023-05-06T20:23:04.176Z,101944.31
2023-05-06T20:25:31.188Z,101939.94
2023-05-06T20:27:58.752Z,101948.63
2023-05-06T20:30:26.513Z,101940.97
2023-05-06T20:32:53.098Z,101938.22
2023-05-06T20:35:19.709Z,101941.38
2023-05-06T20:37:48.157Z,101937.91
2023-05-06T20:40:15.398Z,101939.28
2023-05-06T20:42:42.384Z,101945.19
2023-05-06T20:45:13.276Z,101933.59
2023-05-06T20:47:40.285Z,101940.84
2023-05-06T20:50:07.850Z,101936.81
2023-05-06T20:52:36.802Z,101931.91
2023-05-06T20:55:05.384Z,101929.59
2023-05-06T20:57:32.834Z,101929.53
2023-05-06T21:00:00.110Z,101936.56
2023-05-06T21:02:34.441Z,101938.59
2023-05-06T21:05:07.853Z,101941.75
2023-05-06T21:07:34.622Z,101936.31
2023-05-06T21:10:03.203Z,101943.06
2023-05-06T21:12:29.702Z,101948.66
2023-05-06T21:14:56.194Z,101950.97
2023-05-06T21:17:22.767Z,101943.69
2023-05-06T21:19:52.495Z,101939.97
2023-05-06T21:22:23.282Z,101941.53
2023-05-06T21:24:50.678Z,101938.03
2023-05-06T21:27:17.159Z,101929.41
2023-05-06T21:29:43.623Z,101938.59
2023-05-06T21:32:10.202Z,101932.66
2023-05-06T21:34:36.644Z,101936.84
2023-05-06T21:37:03.185Z,101932.59
2023-05-06T21:39:29.691Z,101945.28
2023-05-06T21:41:56.518Z,101937.88
2023-05-06T21:44:22.983Z,101947.84
2023-05-06T21:46:49.549Z,101944.78
2023-05-06T21:49:16.143Z,101939.28
2023-05-06T21:51:42.623Z,101935.94
2023-05-06T21:54:09.206Z,101938.34
2023-05-06T21:56:35.776Z,101941.38
2023-05-06T21:59:02.195Z,101939.50
2023-05-06T22:01:29.256Z,101947.78
2023-05-06T22:03:56.020Z,101941.00
2023-05-06T22:06:22.678Z,101947.72
2023-05-06T22:08:49.163Z,101944.22
2023-05-06T22:11:15.916Z,101942.34
2023-05-06T22:13:42.446Z,101944.34
2023-05-06T22:20:33.092Z,101936.03
2023-05-06T22:22:59.535Z,101933.34
2023-05-06T22:25:26.241Z,101940.31
2023-05-06T22:27:52.707Z,101942.84
2023-05-06T22:30:19.188Z,101938.00
2023-05-06T22:32:45.685Z,101942.97
2023-05-06T22:35:12.461Z,101945.25
2023-05-06T22:37:39.189Z,101933.66
2023-05-06T22:40:07.175Z,101937.53
2023-05-06T22:42:33.630Z,101942.72
2023-05-06T22:45:00.143Z,101940.72
2023-05-06T22:47:26.811Z,101943.13
2023-05-06T22:49:53.325Z,101942.84
2023-05-06T22:52:20.317Z,101930.34
2023-05-06T22:54:47.034Z,101932.09
2023-05-06T22:57:14.406Z,101933.50
2023-05-06T22:59:40.924Z,101931.75
2023-05-06T23:02:07.414Z,101934.88
2023-05-06T23:04:33.898Z,101930.03
2023-05-06T23:07:00.478Z,101923.47
2023-05-06T23:09:26.962Z,101933.81
2023-05-06T23:11:53.422Z,101927.22
2023-05-06T23:14:19.929Z,101938.88
2023-05-06T23:16:46.500Z,101934.88
2023-05-06T23:19:12.926Z,101934.81
2023-05-06T23:21:41.503Z,101944.69
2023-05-06T23:24:08.818Z,101935.50
2023-05-06T23:26:35.325Z,101924.44
2023-05-06T23:29:01.810Z,101933.50
2023-05-06T23:31:28.360Z,101931.75
2023-05-06T23:33:54.866Z,101927.97
2023-05-06T23:36:21.607Z,101929.16
2023-05-06T23:38:48.051Z,101922.56
2023-05-06T23:41:14.538Z,101930.47
2023-05-06T23:43:40.995Z,101936.91
2023-05-06T23:46:07.500Z,101933.06
2023-05-06T23:48:34.452Z,101930.66
2023-05-06T23:51:00.980Z,101947.81
2023-05-06T23:53:27.464Z,101936.47
2023-05-06T23:55:54.033Z,101945.00
2023-05-06T23:58:20.652Z,101940.38
